createdAt,value
2018-05-09T00:00:24.407Z,63.29
2018-05-09T00:01:23.392Z,63.29
2018-05-09T00:03:23.774Z,63.38
2018-05-09T00:04:24.268Z,64.43
2018-05-09T00:06:24.301Z,63.48
2018-05-09T00:07:24.164Z,63.29
2018-05-09T00:09:26.183Z,63.48
2018-05-09T00:10:25.154Z,63.76
2018-05-09T00:12:25.686Z,64.53
2018-05-09T00:13:25.588Z,65.01
2018-05-09T00:15:25.640Z,65.84
2018-05-09T00:16:25.584Z,66.06
2018-05-09T00:18:26.073Z,66.51
2018-05-09T00:19:25.983Z,67.12
2018-05-09T00:21:24.480Z,67.09
2018-05-09T00:22:24.133Z,67.38
2018-05-09T00:24:24.576Z,68.05
2018-05-09T00:25:25.126Z,68.05
2018-05-09T00:27:22.720Z,68.62
2018-05-09T00:28:22.697Z,69.10
2018-05-09T00:30:25.617Z,69.48
2018-05-09T00:31:24.119Z,69.58
2018-05-09T00:33:25.314Z,69.58
2018-05-09T00:34:27.105Z,69.68
2018-05-09T00:36:25.787Z,69.87
2018-05-09T00:37:25.792Z,69.68
2018-05-09T00:39:26.736Z,70.25
2018-05-09T00:40:26.793Z,70.15
2018-05-09T00:42:22.795Z,70.25
2018-05-09T00:43:22.769Z,70.21
2018-05-09T00:45:23.696Z,71.59
2018-05-09T00:46:23.670Z,71.21
2018-05-09T00:48:25.148Z,70.79
2018-05-09T00:49:24.695Z,71.37
2018-05-09T00:51:25.577Z,71.75
2018-05-09T00:52:26.132Z,72.03
2018-05-09T00:54:26.113Z,72.03
2018-05-09T00:55:27.112Z,72.13
2018-05-09T00:57:26.004Z,72.52
2018-05-09T00:58:27.001Z,72.42
2018-05-09T01:00:27.959Z,72.90
2018-05-09T01:01:29.040Z,73.09
2018-05-09T01:03:25.965Z,72.80
2018-05-09T01:04:25.625Z,73.09
2018-05-09T01:06:27.667Z,73.19
2018-05-09T01:07:26.575Z,73.57
2018-05-09T01:09:32.882Z,73.57
2018-05-09T01:10:32.014Z,73.66
2018-05-09T01:12:32.513Z,73.28
2018-05-09T01:13:32.958Z,73.09
2018-05-09T01:15:33.886Z,73.28
2018-05-09T01:16:34.922Z,73.09
2018-05-09T01:18:34.386Z,73.57
2018-05-09T01:19:34.372Z,72.99
2018-05-09T01:21:34.890Z,72.99
2018-05-09T01:22:34.924Z,72.99
2018-05-09T01:24:36.306Z,73.19
2018-05-09T01:25:35.325Z,72.99
2018-05-09T01:27:35.746Z,73.09
2018-05-09T01:28:35.697Z,73.57
2018-05-09T01:30:36.189Z,74.43
2018-05-09T01:31:36.721Z,73.95
2018-05-09T01:33:38.187Z,74.05
2018-05-09T01:34:37.606Z,74.24
2018-05-09T01:36:39.601Z,74.05
2018-05-09T01:37:38.100Z,74.05
2018-05-09T01:39:39.555Z,74.33
2018-05-09T01:40:38.564Z,74.15
2018-05-09T01:42:39.075Z,74.52
2018-05-09T01:43:39.049Z,74.33
2018-05-09T01:45:39.487Z,74.24
2018-05-09T01:46:39.515Z,74.05
2018-05-09T01:48:39.942Z,74.33
2018-05-09T01:49:39.938Z,74.33
2018-05-09T01:51:41.325Z,74.33
2018-05-09T01:52:40.367Z,74.24
2018-05-09T01:54:41.259Z,74.43
2018-05-09T01:55:40.729Z,74.33
2018-05-09T01:57:42.764Z,74.15
2018-05-09T01:58:41.252Z,74.15
2018-05-09T02:00:43.681Z,74.20
2018-05-09T02:01:42.713Z,74.33
2018-05-09T02:03:40.610Z,74.15
2018-05-09T02:04:39.713Z,74.05
2018-05-09T02:06:38.668Z,74.77
2018-05-09T02:07:35.696Z,74.97
2018-05-09T02:09:36.550Z,74.43
2018-05-09T02:10:36.133Z,75.01
2018-05-09T02:12:41.082Z,75.10
2018-05-09T02:13:40.145Z,74.77
2018-05-09T02:15:38.600Z,74.62
2018-05-09T02:16:37.956Z,74.05
2018-05-09T02:18:39.395Z,73.76
2018-05-09T02:19:38.541Z,73.28
2018-05-09T02:21:40.372Z,73.47
2018-05-09T02:22:41.021Z,73.09
2018-05-09T02:24:39.915Z,73.66
2018-05-09T02:25:39.356Z,73.47
2018-05-09T02:27:39.867Z,73.19
2018-05-09T02:28:39.873Z,72.32
2018-05-09T02:30:38.769Z,73.32
2018-05-09T02:31:38.816Z,73.09
2018-05-09T02:33:38.428Z,73.09
2018-05-09T02:34:38.839Z,72.61
2018-05-09T02:36:36.877Z,72.23
2018-05-09T02:37:36.324Z,72.07
2018-05-09T02:39:37.840Z,71.40
2018-05-09T02:40:36.886Z,71.88
2018-05-09T02:42:38.243Z,71.59
2018-05-09T02:43:37.250Z,71.21
2018-05-09T02:45:39.769Z,71.21
2018-05-09T02:46:39.735Z,71.40
2018-05-09T02:48:40.763Z,71.11
2018-05-09T02:49:40.680Z,71.40
2018-05-09T02:51:41.640Z,71.31
2018-05-09T02:52:40.841Z,71.21
2018-05-09T02:54:42.090Z,71.11
2018-05-09T02:55:41.139Z,71.50
2018-05-09T02:57:42.544Z,71.40
2018-05-09T02:58:41.603Z,71.88
2018-05-09T03:00:42.066Z,71.21
2018-05-09T03:01:42.124Z,71.40
2018-05-09T03:03:44.476Z,71.40
2018-05-09T03:04:43.480Z,71.69
2018-05-09T03:06:41.031Z,71.40
2018-05-09T03:07:42.006Z,71.50
2018-05-09T03:09:37.009Z,72.07
2018-05-09T03:10:36.436Z,72.27
2018-05-09T03:12:38.314Z,72.74
2018-05-09T03:13:36.815Z,72.74
2018-05-09T03:15:41.390Z,73.80
2018-05-09T03:16:41.891Z,73.51
2018-05-09T03:18:42.250Z,73.70
2018-05-09T03:19:42.347Z,73.32
2018-05-09T03:21:43.700Z,73.28
2018-05-09T03:22:43.230Z,73.28
2018-05-09T03:24:43.683Z,73.19
2018-05-09T03:25:43.722Z,72.99
2018-05-09T03:27:44.175Z,73.28
2018-05-09T03:28:45.147Z,73.28
2018-05-09T03:30:47.233Z,73.09
2018-05-09T03:31:46.137Z,73.09
2018-05-09T03:33:46.751Z,73.09
2018-05-09T03:34:47.310Z,73.13
2018-05-09T03:36:46.263Z,73.13
2018-05-09T03:37:45.895Z,73.03
2018-05-09T03:39:46.391Z,73.32
2018-05-09T03:40:46.933Z,73.03
2018-05-09T03:42:46.931Z,72.99
2018-05-09T03:43:48.347Z,73.80
2018-05-09T03:45:48.279Z,74.18
2018-05-09T03:46:47.488Z,74.08
2018-05-09T03:48:48.792Z,74.27
2018-05-09T03:49:47.944Z,74.08
2018-05-09T03:51:50.397Z,74.57
2018-05-09T03:52:49.329Z,74.82
2018-05-09T03:54:51.302Z,74.76
2018-05-09T03:55:51.873Z,75.10
2018-05-09T03:57:50.327Z,74.62
2018-05-09T03:58:48.972Z,74.72
2018-05-09T04:00:51.435Z,74.72
2018-05-09T04:01:49.320Z,74.72
2018-05-09T04:03:50.396Z,75.20
2018-05-09T04:04:50.356Z,75.01
2018-05-09T04:06:52.892Z,75.77
2018-05-09T04:07:50.292Z,75.68
2018-05-09T04:09:50.767Z,75.77
2018-05-09T04:10:51.237Z,75.87
2018-05-09T04:12:54.224Z,76.25
2018-05-09T04:13:53.230Z,75.77
2018-05-09T04:15:51.669Z,76.06
2018-05-09T04:16:51.602Z,76.06
2018-05-09T04:18:52.583Z,76.44
2018-05-09T04:19:52.274Z,76.73
2018-05-09T04:21:55.751Z,76.54
2018-05-09T04:22:53.668Z,76.15
2018-05-09T04:24:56.715Z,76.06
2018-05-09T04:25:55.607Z,76.35
2018-05-09T04:27:52.044Z,76.15
2018-05-09T04:28:52.142Z,76.06
2018-05-09T04:30:52.503Z,76.54
2018-05-09T04:31:54.543Z,76.44
2018-05-09T04:33:53.963Z,76.44
2018-05-09T04:34:53.925Z,76.25
2018-05-09T04:36:54.948Z,76.54
2018-05-09T04:37:54.994Z,76.64
2018-05-09T04:39:55.351Z,76.92
2018-05-09T04:40:56.036Z,76.44
2018-05-09T04:42:55.366Z,76.25
2018-05-09T04:43:55.816Z,76.00
2018-05-09T04:45:51.201Z,75.71
2018-05-09T04:46:51.276Z,75.62
2018-05-09T04:48:50.262Z,75.90
2018-05-09T04:49:51.224Z,76.00
2018-05-09T04:51:51.287Z,75.27
2018-05-09T04:52:50.785Z,75.08
2018-05-09T04:54:51.678Z,74.22
2018-05-09T04:55:51.361Z,74.35
2018-05-09T04:57:54.255Z,73.87
2018-05-09T04:58:52.875Z,73.30
2018-05-09T05:00:53.246Z,73.10
2018-05-09T05:01:58.243Z,72.47
2018-05-09T05:03:58.893Z,72.28
2018-05-09T05:04:54.754Z,71.80
2018-05-09T05:07:10.915Z,71.64
2018-05-09T05:07:58.931Z,71.80
2018-05-09T05:10:07.837Z,71.16
2018-05-09T05:13:05.197Z,70.29
2018-05-09T05:14:05.667Z,70.39
2018-05-09T05:16:05.216Z,69.91
2018-05-09T05:17:06.243Z,69.62
2018-05-09T05:19:06.567Z,69.37
2018-05-09T05:20:06.668Z,68.98
2018-05-09T05:22:07.098Z,68.31
2018-05-09T05:23:08.148Z,68.51
2018-05-09T05:25:04.037Z,67.93
2018-05-09T05:26:03.032Z,67.54
2018-05-09T05:28:01.026Z,67.74
2018-05-09T05:29:01.027Z,66.81
2018-05-09T05:31:02.938Z,66.71
2018-05-09T05:32:03.051Z,66.14
2018-05-09T05:34:03.393Z,64.89
2018-05-09T05:35:01.946Z,64.69
2018-05-09T05:37:09.935Z,64.60
2018-05-09T05:38:03.386Z,63.67
2018-05-09T05:40:06.430Z,63.67
2018-05-09T05:41:02.906Z,63.09
2018-05-09T05:43:03.331Z,62.90
2018-05-09T05:44:04.322Z,62.32
2018-05-09T05:46:01.324Z,62.32
2018-05-09T05:47:01.811Z,62.13
2018-05-09T05:49:01.690Z,60.72
2018-05-09T05:50:01.726Z,60.91
2018-05-09T05:51:59.739Z,60.04
2018-05-09T05:53:00.186Z,60.42
2018-05-09T05:55:00.629Z,59.27
2018-05-09T05:56:00.268Z,59.17
2018-05-09T05:58:01.117Z,59.17
2018-05-09T05:59:00.616Z,59.66
2018-05-09T06:00:59.574Z,59.08
2018-05-09T06:01:59.636Z,59.37
2018-05-09T06:03:54.596Z,58.79
2018-05-09T06:04:54.560Z,58.50
2018-05-09T06:06:56.037Z,58.12
2018-05-09T06:07:56.561Z,57.45
2018-05-09T06:09:54.469Z,57.64
2018-05-09T06:10:53.440Z,57.76
2018-05-09T06:12:53.947Z,57.67
2018-05-09T06:13:54.926Z,57.28
2018-05-09T06:15:54.449Z,56.90
2018-05-09T06:16:53.847Z,57.09
2018-05-09T06:18:54.361Z,56.51
2018-05-09T06:19:57.318Z,56.41
2018-05-09T06:21:56.347Z,56.22
2018-05-09T06:22:55.803Z,55.83
2018-05-09T06:24:59.787Z,55.35
2018-05-09T06:25:59.887Z,55.35
2018-05-09T06:27:56.797Z,54.42
2018-05-09T06:28:58.302Z,54.42
2018-05-09T06:30:54.896Z,53.84
2018-05-09T06:31:55.717Z,53.84
2018-05-09T06:33:55.820Z,53.36
2018-05-09T06:34:55.327Z,53.55
2018-05-09T06:36:55.742Z,53.45
2018-05-09T06:37:56.283Z,53.84
2018-05-09T06:39:57.758Z,54.13
2018-05-09T06:40:56.222Z,54.13
2018-05-09T06:42:56.748Z,53.65
2018-05-09T06:43:57.220Z,53.77
2018-05-09T06:45:53.688Z,53.29
2018-05-09T06:46:53.137Z,53.39
2018-05-09T06:48:53.122Z,52.61
2018-05-09T06:49:53.088Z,52.91
2018-05-09T06:51:54.526Z,52.61
2018-05-09T06:52:53.519Z,52.04
2018-05-09T06:54:52.506Z,51.94
2018-05-09T06:55:51.617Z,52.52
2018-05-09T06:57:52.075Z,52.42
2018-05-09T06:58:52.099Z,52.23
2018-05-09T07:00:52.548Z,51.56
2018-05-09T07:01:52.539Z,51.36
2018-05-09T07:03:52.994Z,51.36
2018-05-09T07:04:52.992Z,51.58
2018-05-09T07:06:53.468Z,51.36
2018-05-09T07:07:53.502Z,50.30
2018-05-09T07:09:50.911Z,50.13
2018-05-09T07:10:50.949Z,50.23
2018-05-09T07:12:52.360Z,49.17
2018-05-09T07:13:51.871Z,48.59
2018-05-09T07:15:47.906Z,48.81
2018-05-09T07:16:47.355Z,49.00
2018-05-09T07:18:47.333Z,47.55
2018-05-09T07:19:47.406Z,47.17
2018-05-09T07:21:45.279Z,47.65
2018-05-09T07:22:45.756Z,47.94
2018-05-09T07:24:44.256Z,47.36
2018-05-09T07:25:43.256Z,47.36
2018-05-09T07:27:41.223Z,47.55
2018-05-09T07:28:41.159Z,47.55
2018-05-09T07:30:41.168Z,46.81
2018-05-09T07:31:39.144Z,46.81
2018-05-09T07:33:37.741Z,46.61
2018-05-09T07:34:37.256Z,45.07
2018-05-09T07:36:37.722Z,45.17
2018-05-09T07:37:37.714Z,45.45
2018-05-09T07:39:38.219Z,45.17
2018-05-09T07:40:39.228Z,45.17
2018-05-09T07:42:39.668Z,45.45
2018-05-09T07:43:38.701Z,45.94
2018-05-09T07:45:36.606Z,45.84
2018-05-09T07:46:36.156Z,45.84
2018-05-09T07:48:31.571Z,45.84
2018-05-09T07:49:32.549Z,46.03
2018-05-09T07:51:31.012Z,46.15
2018-05-09T07:52:30.541Z,45.57
2018-05-09T07:54:32.186Z,45.18
2018-05-09T07:55:30.301Z,45.09
2018-05-09T07:57:30.653Z,45.28
2018-05-09T07:58:31.192Z,45.28
2018-05-09T08:00:26.629Z,44.90
2018-05-09T08:01:26.574Z,45.40
2018-05-09T08:03:24.540Z,44.92
2018-05-09T08:04:24.601Z,44.92
2018-05-09T08:06:22.521Z,45.31
2018-05-09T08:07:22.483Z,45.21
2018-05-09T08:09:20.986Z,45.40
2018-05-09T08:10:21.440Z,45.31
2018-05-09T08:12:17.597Z,44.92
2018-05-09T08:13:16.576Z,45.31
2018-05-09T08:15:13.056Z,45.31
2018-05-09T08:16:12.553Z,45.04
2018-05-09T08:18:12.046Z,44.36
2018-05-09T08:19:12.457Z,44.65
2018-05-09T08:21:10.131Z,44.46
2018-05-09T08:22:08.714Z,44.65
2018-05-09T08:24:06.595Z,44.17
2018-05-09T08:25:06.106Z,44.07
2018-05-09T08:27:03.170Z,44.26
2018-05-09T08:28:01.619Z,44.65
2018-05-09T08:30:02.114Z,44.94
2018-05-09T08:31:04.039Z,44.65
2018-05-09T08:33:01.192Z,44.36
2018-05-09T08:34:00.978Z,44.19
2018-05-09T08:35:58.125Z,43.13
2018-05-09T08:36:59.583Z,43.41
2018-05-09T08:38:54.056Z,44.09
2018-05-09T08:39:54.079Z,44.29
2018-05-09T08:41:54.581Z,43.80
2018-05-09T08:42:55.541Z,43.44
2018-05-09T08:44:53.527Z,43.44
2018-05-09T08:45:53.510Z,42.93
2018-05-09T08:47:51.638Z,43.24
2018-05-09T08:48:52.642Z,43.63
2018-05-09T08:50:50.189Z,42.74
2018-05-09T08:51:48.757Z,42.83
2018-05-09T08:53:46.918Z,43.03
2018-05-09T08:54:46.894Z,43.23
2018-05-09T08:56:45.838Z,42.83
2018-05-09T08:57:44.828Z,43.03
2018-05-09T08:59:43.327Z,42.65
2018-05-09T09:00:43.818Z,42.65
2018-05-09T09:02:39.909Z,43.32
2018-05-09T09:03:38.904Z,43.71
2018-05-09T09:05:34.999Z,44.02
2018-05-09T09:06:35.380Z,43.73
2018-05-09T09:08:35.838Z,43.15
2018-05-09T09:09:36.308Z,42.97
2018-05-09T09:11:33.414Z,42.68
2018-05-09T09:12:33.379Z,41.82
2018-05-09T09:14:32.296Z,41.91
2018-05-09T09:15:31.345Z,42.30
2018-05-09T09:17:27.293Z,41.83
2018-05-09T09:18:27.326Z,41.33
2018-05-09T09:20:28.210Z,41.83
2018-05-09T09:21:27.710Z,41.83
2018-05-09T09:23:26.197Z,41.83
2018-05-09T09:24:25.710Z,41.45
2018-05-09T09:26:23.799Z,41.55
2018-05-09T09:27:23.912Z,40.77
2018-05-09T09:29:22.277Z,40.38
2018-05-09T09:30:21.796Z,40.96
2018-05-09T09:32:19.937Z,39.61
2018-05-09T09:33:19.946Z,40.38
2018-05-09T09:35:16.886Z,40.28
2018-05-09T09:36:17.380Z,40.77
2018-05-09T09:38:11.866Z,40.26
2018-05-09T09:39:12.363Z,40.96
2018-05-09T09:41:09.944Z,41.35
2018-05-09T09:42:10.851Z,41.16
2018-05-09T09:44:11.491Z,41.27
2018-05-09T09:45:11.455Z,41.08
2018-05-09T09:47:08.933Z,40.31
2018-05-09T09:48:09.401Z,40.31
2018-05-09T09:50:06.443Z,40.40
2018-05-09T09:51:06.878Z,39.92
2018-05-09T09:53:02.356Z,40.31
2018-05-09T09:54:02.346Z,39.84
2018-05-09T09:56:00.843Z,39.36
2018-05-09T09:57:00.810Z,39.36
2018-05-09T09:58:58.794Z,39.06
2018-05-09T09:59:59.359Z,37.41
2018-05-09T10:01:56.950Z,37.98
2018-05-09T10:02:57.396Z,38.76
2018-05-09T10:04:52.393Z,38.39
2018-05-09T10:05:53.358Z,38.39
2018-05-09T10:07:50.440Z,37.90
2018-05-09T10:08:48.338Z,37.81
2018-05-09T10:10:44.812Z,38.21
2018-05-09T10:11:44.419Z,37.73
2018-05-09T10:13:42.879Z,37.43
2018-05-09T10:14:43.307Z,37.53
2018-05-09T10:16:38.400Z,37.53
2018-05-09T10:17:38.409Z,37.63
2018-05-09T10:19:34.373Z,36.48
2018-05-09T10:20:34.391Z,36.08
2018-05-09T10:22:36.320Z,35.86
2018-05-09T10:23:34.831Z,36.64
2018-05-09T10:25:32.813Z,36.95
2018-05-09T10:26:33.811Z,36.85
2018-05-09T10:28:30.762Z,37.63
2018-05-09T10:29:30.806Z,37.15
2018-05-09T10:31:26.788Z,37.16
2018-05-09T10:32:26.728Z,36.36
2018-05-09T10:34:23.212Z,36.00
2018-05-09T10:35:24.206Z,36.58
2018-05-09T10:37:19.698Z,36.10
2018-05-09T10:38:19.168Z,36.00
2018-05-09T10:40:18.191Z,36.21
2018-05-09T10:41:18.624Z,36.50
2018-05-09T10:43:13.897Z,34.75
2018-05-09T10:44:13.909Z,34.85
2018-05-09T10:46:11.314Z,35.24
2018-05-09T10:47:09.923Z,35.61
2018-05-09T10:49:05.833Z,35.82
2018-05-09T10:50:05.809Z,35.32
2018-05-09T10:52:03.811Z,36.10
2018-05-09T10:53:03.852Z,35.72
2018-05-09T10:55:02.767Z,35.05
2018-05-09T10:56:02.758Z,34.48
2018-05-09T10:57:59.900Z,33.49
2018-05-09T10:59:00.342Z,33.98
2018-05-09T11:01:00.335Z,33.80
2018-05-09T11:02:02.315Z,33.22
2018-05-09T11:03:58.810Z,32.44
2018-05-09T11:04:58.468Z,31.85
2018-05-09T11:06:56.915Z,32.05
2018-05-09T11:07:56.457Z,32.92
2018-05-09T11:09:52.407Z,32.34
2018-05-09T11:10:52.467Z,32.24
2018-05-09T11:12:48.899Z,32.91
2018-05-09T11:13:48.401Z,33.01
2018-05-09T11:15:46.366Z,32.62
2018-05-09T11:16:46.887Z,31.94
2018-05-09T11:18:45.840Z,30.38
2018-05-09T11:19:45.333Z,30.00
2018-05-09T11:21:43.456Z,31.55
2018-05-09T11:22:42.576Z,32.13
2018-05-09T11:24:40.130Z,31.94
2018-05-09T11:25:39.051Z,31.37
2018-05-09T11:27:34.531Z,30.69
2018-05-09T11:28:36.016Z,30.22
2018-05-09T11:30:31.515Z,30.02
2018-05-09T11:31:30.500Z,30.32
2018-05-09T11:33:26.497Z,30.51
2018-05-09T11:34:26.489Z,30.51
2018-05-09T11:36:24.977Z,30.61
2018-05-09T11:37:24.949Z,30.71
2018-05-09T11:39:23.420Z,30.71
2018-05-09T11:40:22.370Z,30.61
2018-05-09T11:42:21.362Z,30.22
2018-05-09T11:43:20.499Z,30.22
2018-05-09T11:45:19.037Z,31.47
2018-05-09T11:46:18.647Z,32.05
2018-05-09T11:48:14.592Z,31.37
2018-05-09T11:49:15.597Z,30.69
2018-05-09T11:51:10.554Z,31.27
2018-05-09T11:52:11.067Z,31.58
2018-05-09T11:54:06.545Z,31.58
2018-05-09T11:55:07.543Z,31.68
2018-05-09T11:57:02.542Z,30.14
2018-05-09T11:58:03.433Z,30.62
2018-05-09T11:59:58.545Z,30.62
2018-05-09T12:00:59.462Z,29.96
2018-05-09T12:02:56.976Z,29.47
2018-05-09T12:03:57.477Z,28.99
2018-05-09T12:05:53.446Z,28.97
2018-05-09T12:06:52.397Z,28.29
2018-05-09T12:08:50.363Z,29.74
2018-05-09T12:09:48.386Z,29.83
2018-05-09T12:11:46.490Z,30.33
2018-05-09T12:12:46.507Z,29.55
2018-05-09T12:14:44.500Z,29.65
2018-05-09T12:15:44.470Z,29.26
2018-05-09T12:17:42.935Z,29.06
2018-05-09T12:18:42.466Z,28.09
2018-05-09T12:20:39.442Z,27.90
2018-05-09T12:21:38.472Z,27.61
2018-05-09T12:23:34.456Z,27.23
2018-05-09T12:24:34.519Z,27.43
2018-05-09T12:26:30.457Z,27.23
2018-05-09T12:27:30.441Z,27.43
2018-05-09T12:29:27.409Z,27.82
2018-05-09T12:30:28.405Z,27.53
2018-05-09T12:32:24.366Z,28.89
2018-05-09T12:34:39.856Z,27.53
2018-05-09T12:35:39.366Z,27.62
2018-05-09T12:37:37.873Z,27.92
2018-05-09T12:38:38.316Z,27.92
2018-05-09T12:40:33.485Z,27.72
2018-05-09T12:41:33.488Z,27.82
2018-05-09T12:43:29.448Z,28.11
2018-05-09T12:44:29.434Z,27.62
2018-05-09T12:46:27.948Z,27.82
2018-05-09T12:47:27.569Z,27.62
2018-05-09T12:49:23.969Z,28.03
2018-05-09T12:50:24.490Z,27.73
2018-05-09T12:52:19.515Z,27.83
2018-05-09T12:53:19.475Z,27.54
2018-05-09T12:55:16.433Z,27.64
2018-05-09T12:56:15.434Z,27.54
2018-05-09T12:58:11.425Z,27.83
2018-05-09T12:59:11.425Z,28.03
2018-05-09T13:01:08.814Z,28.80
2018-05-09T13:02:07.383Z,27.83
2018-05-09T13:04:05.852Z,28.22
2018-05-09T13:05:05.339Z,28.13
2018-05-09T13:07:01.848Z,27.34
2018-05-09T13:08:01.812Z,26.67
2018-05-09T13:09:58.274Z,27.25
2018-05-09T13:10:57.294Z,27.36
2018-05-09T13:12:53.225Z,26.29
2018-05-09T13:13:53.228Z,26.78
2018-05-09T13:15:51.155Z,26.19
2018-05-09T13:16:51.188Z,26.39
2018-05-09T13:18:50.131Z,26.19
2018-05-09T13:19:49.327Z,25.70
2018-05-09T13:21:47.772Z,25.70
2018-05-09T13:22:47.308Z,26.39
2018-05-09T13:24:44.269Z,26.48
2018-05-09T13:25:45.277Z,26.78
2018-05-09T13:27:40.746Z,27.56
2018-05-09T13:28:40.215Z,26.79
2018-05-09T13:30:40.183Z,26.98
2018-05-09T13:31:38.401Z,26.79
2018-05-09T13:33:35.354Z,26.89
2018-05-09T13:34:34.348Z,27.37
2018-05-09T13:36:30.266Z,26.59
2018-05-09T13:37:30.265Z,26.69
2018-05-09T13:39:28.231Z,26.79
2018-05-09T13:40:29.225Z,26.89
2018-05-09T13:42:24.213Z,26.19
2018-05-09T13:43:24.250Z,26.39
2018-05-09T13:45:22.656Z,26.68
2018-05-09T13:46:22.222Z,27.55
2018-05-09T13:48:19.126Z,26.78
2018-05-09T13:49:19.640Z,26.68
2018-05-09T13:51:17.102Z,26.39
2018-05-09T13:52:17.092Z,27.25
2018-05-09T13:54:14.065Z,27.25
2018-05-09T13:55:13.098Z,27.16
2018-05-09T13:57:09.079Z,26.68
2018-05-09T13:58:09.078Z,27.37
2018-05-09T14:00:06.050Z,27.18
2018-05-09T14:01:05.066Z,27.28
2018-05-09T14:03:01.530Z,26.68
2018-05-09T14:04:01.033Z,26.78
2018-05-09T14:05:57.990Z,27.45
2018-05-09T14:06:57.035Z,27.25
2018-05-09T14:08:53.498Z,26.95
2018-05-09T14:09:53.068Z,27.25
2018-05-09T14:11:49.991Z,28.51
2018-05-09T14:12:48.986Z,28.14
2018-05-09T14:14:47.978Z,26.87
2018-05-09T14:15:47.111Z,27.45
2018-05-09T14:17:45.064Z,26.68
2018-05-09T14:18:45.112Z,26.59
2018-05-09T14:20:45.040Z,26.89
2018-05-09T14:21:44.051Z,26.79
2018-05-09T14:23:39.685Z,26.40
2018-05-09T14:24:39.206Z,26.69
2018-05-09T14:26:35.140Z,27.28
2018-05-09T14:27:35.130Z,27.47
2018-05-09T14:29:31.168Z,26.29
2018-05-09T14:30:31.106Z,26.97
2018-05-09T14:32:28.067Z,27.94
2018-05-09T14:33:27.626Z,28.34
2018-05-09T14:35:26.051Z,28.34
2018-05-09T14:36:25.080Z,28.05
2018-05-09T14:38:23.527Z,28.53
2018-05-09T14:39:24.025Z,28.14
2018-05-09T14:41:21.149Z,28.51
2018-05-09T14:42:21.166Z,28.61
2018-05-09T14:44:20.122Z,29.10
2018-05-09T14:45:19.260Z,29.29
2018-05-09T14:47:19.220Z,29.19
2018-05-09T14:48:17.408Z,29.49
2018-05-09T14:50:13.405Z,29.39
2018-05-09T14:51:14.375Z,29.29
2018-05-09T14:53:12.890Z,29.29
2018-05-09T14:54:12.306Z,29.18
2018-05-09T14:56:07.466Z,29.66
2018-05-09T14:57:08.017Z,30.25
2018-05-09T14:59:06.506Z,30.25
2018-05-09T15:00:06.468Z,30.15
2018-05-09T15:02:03.972Z,30.54
2018-05-09T15:03:03.663Z,30.82
2018-05-09T15:05:01.546Z,30.25
2018-05-09T15:06:01.558Z,30.33
2018-05-09T15:08:00.022Z,30.24
2018-05-09T15:08:59.498Z,30.62
2018-05-09T15:10:55.497Z,29.55
2018-05-09T15:11:55.985Z,30.14
2018-05-09T15:13:53.948Z,30.72
2018-05-09T15:14:53.459Z,30.72
2018-05-09T15:16:48.645Z,30.33
2018-05-09T15:17:48.444Z,30.33
2018-05-09T15:19:45.353Z,30.72
2018-05-09T15:20:44.557Z,30.82
2018-05-09T15:22:40.545Z,30.52
2018-05-09T15:23:41.534Z,30.33
2018-05-09T15:25:39.021Z,30.82
2018-05-09T15:26:39.002Z,31.21
2018-05-09T15:28:37.460Z,31.88
2018-05-09T15:29:37.405Z,31.97
2018-05-09T15:31:35.434Z,31.48
2018-05-09T15:32:35.456Z,31.77
2018-05-09T15:34:32.927Z,30.51
2018-05-09T15:35:32.583Z,30.41
2018-05-09T15:37:31.116Z,30.51
2018-05-09T15:38:31.469Z,31.29
2018-05-09T15:40:29.709Z,32.55
2018-05-09T15:41:28.686Z,32.55
2018-05-09T15:43:24.661Z,31.97
2018-05-09T15:44:24.615Z,31.58
2018-05-09T15:46:22.098Z,31.68
2018-05-09T15:47:21.107Z,31.68
2018-05-09T15:49:19.046Z,32.17
2018-05-09T15:50:18.639Z,32.07
2018-05-09T15:52:14.524Z,31.85
2018-05-09T15:53:15.535Z,31.37
2018-05-09T15:55:11.507Z,32.73
2018-05-09T15:56:11.525Z,31.76
2018-05-09T15:58:07.465Z,31.38
2018-05-09T15:59:06.513Z,31.68
2018-05-09T16:01:11.525Z,31.29
2018-05-09T16:02:09.042Z,31.10
2018-05-09T16:04:06.498Z,30.90
2018-05-09T16:05:05.956Z,30.61
2018-05-09T16:07:03.939Z,31.58
2018-05-09T16:08:02.937Z,31.38
2018-05-09T16:10:00.843Z,31.58
2018-05-09T16:11:00.132Z,31.68
2018-05-09T16:12:59.130Z,31.29
2018-05-09T16:13:59.101Z,31.01
2018-05-09T16:15:56.643Z,30.72
2018-05-09T16:16:57.099Z,30.43
2018-05-09T16:18:52.293Z,30.72
2018-05-09T16:19:52.195Z,30.52
2018-05-09T16:21:50.155Z,29.85
2018-05-09T16:22:50.161Z,30.14
2018-05-09T16:24:49.661Z,30.51
2018-05-09T16:25:49.148Z,30.12
2018-05-09T16:27:46.277Z,30.12
2018-05-09T16:28:46.807Z,30.22
2018-05-09T16:30:46.192Z,30.61
2018-05-09T16:31:45.266Z,30.61
2018-05-09T16:33:44.788Z,31.87
2018-05-09T16:34:44.772Z,32.17
2018-05-09T16:36:43.271Z,32.15
2018-05-09T16:37:43.759Z,31.85
2018-05-09T16:39:41.725Z,32.15
2018-05-09T16:40:40.909Z,32.15
2018-05-09T16:42:39.393Z,32.24
2018-05-09T16:43:39.872Z,32.34
2018-05-09T16:45:39.447Z,32.44
2018-05-09T16:46:36.977Z,32.64
2018-05-09T16:48:35.940Z,32.34
2018-05-09T16:49:35.995Z,32.34
2018-05-09T16:51:32.116Z,32.15
2018-05-09T16:52:32.098Z,31.95
2018-05-09T16:54:27.101Z,32.42
2018-05-09T16:55:27.099Z,31.84
2018-05-09T16:57:25.107Z,32.62
2018-05-09T16:58:26.076Z,32.81
2018-05-09T17:00:23.536Z,32.54
2018-05-09T17:01:24.144Z,32.42
2018-05-09T17:03:22.020Z,32.13
2018-05-09T17:04:21.021Z,32.13
2018-05-09T17:06:19.498Z,32.52
2018-05-09T17:07:19.521Z,32.64
2018-05-09T17:09:19.444Z,32.34
2018-05-09T17:10:19.421Z,32.73
2018-05-09T17:12:18.413Z,32.64
2018-05-09T17:13:17.589Z,32.54
2018-05-09T17:15:17.061Z,32.54
2018-05-09T17:16:15.717Z,32.05
2018-05-09T17:18:14.190Z,31.85
2018-05-09T17:19:13.797Z,32.17
2018-05-09T17:21:15.691Z,32.65
2018-05-09T17:22:17.169Z,33.14
2018-05-09T17:24:11.237Z,32.26
2018-05-09T17:25:11.306Z,32.17
2018-05-09T17:27:10.199Z,32.07
2018-05-09T17:28:10.183Z,32.17
2018-05-09T17:30:11.598Z,31.68
2018-05-09T17:31:11.580Z,31.77
2018-05-09T17:33:10.926Z,32.26
2018-05-09T17:34:10.030Z,32.17
2018-05-09T17:36:07.995Z,31.68
2018-05-09T17:37:07.653Z,32.75
2018-05-09T17:39:03.607Z,33.62
2018-05-09T17:40:03.599Z,33.14
2018-05-09T17:42:03.568Z,34.09
2018-05-09T17:43:01.741Z,33.99
2018-05-09T17:45:00.237Z,32.82
2018-05-09T17:45:59.927Z,32.15
2018-05-09T17:47:58.808Z,31.95
2018-05-09T17:48:57.888Z,32.15
2018-05-09T17:50:57.368Z,32.05
2018-05-09T17:51:56.074Z,31.94
2018-05-09T17:53:54.583Z,33.01
2018-05-09T17:54:54.031Z,33.20
2018-05-09T17:56:53.039Z,33.49
2018-05-09T17:57:53.020Z,33.39
2018-05-09T17:59:51.195Z,33.78
2018-05-09T18:00:51.172Z,32.81
2018-05-09T18:02:50.846Z,33.78
2018-05-09T18:03:51.924Z,33.59
2018-05-09T18:05:49.309Z,32.99
2018-05-09T18:06:48.951Z,34.16
2018-05-09T18:08:47.925Z,33.18
2018-05-09T18:09:46.939Z,33.47
2018-05-09T18:11:42.909Z,33.57
2018-05-09T18:12:43.919Z,34.04
2018-05-09T18:14:43.473Z,36.76
2018-05-09T18:15:40.942Z,36.76
2018-05-09T18:17:36.864Z,38.40
2018-05-09T18:18:36.885Z,36.25
2018-05-09T18:20:38.348Z,36.74
2018-05-09T18:21:37.363Z,35.96
2018-05-09T18:23:36.866Z,37.23
2018-05-09T18:24:36.362Z,37.41
2018-05-09T18:26:35.900Z,38.17
2018-05-09T18:27:35.887Z,38.17
2018-05-09T18:29:35.332Z,39.24
2018-05-09T18:30:34.832Z,38.93
2018-05-09T18:32:32.031Z,39.03
2018-05-09T18:33:32.986Z,39.03
2018-05-09T18:35:30.483Z,39.90
2018-05-09T18:36:30.005Z,40.48
2018-05-09T18:38:27.987Z,40.46
2018-05-09T18:39:28.462Z,40.36
2018-05-09T18:41:29.440Z,40.75
2018-05-09T18:42:29.472Z,40.73
2018-05-09T18:44:30.474Z,40.83
2018-05-09T18:45:30.909Z,41.31
2018-05-09T18:47:26.907Z,41.41
2018-05-09T18:48:26.886Z,41.41
2018-05-09T18:50:24.904Z,42.08
2018-05-09T18:51:24.380Z,42.18
2018-05-09T18:53:24.841Z,41.67
2018-05-09T18:54:24.374Z,41.87
2018-05-09T18:56:25.825Z,42.07
2018-05-09T18:57:25.328Z,42.07
2018-05-09T18:59:23.258Z,42.07
2018-05-09T19:00:22.769Z,42.16
2018-05-09T19:02:20.740Z,42.45
2018-05-09T19:03:21.277Z,42.65
2018-05-09T19:05:20.707Z,42.65
2018-05-09T19:06:19.692Z,42.55
2018-05-09T19:08:16.699Z,43.40
2018-05-09T19:09:16.714Z,43.20
2018-05-09T19:11:13.139Z,43.30